createdAt,value
2023-04-13T00:03:40.327Z,3.15
2023-04-13T00:08:42.866Z,2.42
2023-04-13T00:13:47.733Z,5.20
2023-04-13T00:18:48.318Z,3.30
2023-04-13T00:23:48.958Z,3.83
2023-04-13T00:28:51.363Z,2.85
2023-04-13T00:33:52.114Z,2.72
2023-04-13T00:38:54.641Z,3.33
2023-04-13T00:43:59.010Z,2.10
2023-04-13T00:49:01.742Z,2.95
2023-04-13T00:54:02.617Z,4.10
2023-04-13T00:59:05.065Z,3.42
2023-04-13T01:04:05.817Z,3.88
2023-04-13T01:09:11.135Z,4.68
2023-04-13T01:14:19.177Z,1.25
2023-04-13T01:19:29.351Z,1.98
2023-04-13T01:24:37.412Z,2.08
2023-04-13T01:29:40.228Z,1.27
2023-04-13T01:34:41.622Z,2.38
2023-04-13T01:39:42.239Z,2.20
2023-04-13T01:44:53.936Z,1.48
2023-04-13T01:50:00.839Z,1.65
2023-04-13T01:55:09.245Z,1.40
2023-04-13T02:00:14.879Z,2.03
2023-04-13T02:05:18.128Z,1.55
2023-04-13T02:10:18.875Z,2.10
2023-04-13T02:15:21.641Z,3.15
2023-04-13T02:20:22.264Z,1.55
2023-04-13T02:25:23.905Z,2.80
2023-04-13T02:30:25.954Z,0.95
2023-04-13T02:35:27.358Z,0.95
2023-04-13T02:40:28.841Z,2.08
2023-04-13T02:45:31.605Z,3.13
2023-04-13T02:50:32.393Z,3.45
2023-04-13T02:55:39.208Z,1.60
2023-04-13T03:00:45.820Z,1.85
2023-04-13T03:05:50.695Z,1.10
2023-04-13T03:10:55.021Z,3.15
2023-04-13T03:16:00.380Z,2.50
2023-04-13T03:21:01.532Z,2.67
2023-04-13T03:26:10.745Z,1.40
2023-04-13T03:31:14.431Z,0.95
2023-04-13T03:36:15.454Z,1.58
2023-04-13T03:41:16.219Z,1.38
2023-04-13T03:46:21.936Z,2.78
2023-04-13T03:51:23.316Z,1.38
2023-04-13T03:56:26.725Z,2.85
2023-04-13T04:01:29.583Z,1.23
2023-04-13T04:06:31.299Z,3.15
2023-04-13T04:11:45.829Z,3.33
2023-04-13T04:16:50.919Z,1.50
2023-04-13T04:21:53.001Z,0.95
2023-04-13T04:26:58.005Z,1.13
2023-04-13T04:32:00.073Z,1.98
2023-04-13T04:42:10.911Z,1.27
2023-04-13T04:47:16.848Z,0.60
2023-04-13T04:52:34.233Z,0.40
2023-04-13T04:57:37.023Z,2.28
2023-04-13T05:02:41.419Z,4.00
2023-04-13T05:07:46.086Z,0.60
2023-04-13T05:12:48.301Z,1.98
2023-04-13T05:17:51.171Z,1.50
2023-04-13T05:22:53.543Z,2.17
2023-04-13T05:27:54.159Z,1.45
2023-04-13T05:32:57.110Z,1.17
2023-04-13T05:38:00.145Z,2.60
2023-04-13T05:43:04.342Z,1.73
2023-04-13T05:48:11.936Z,2.03
2023-04-13T05:53:12.711Z,1.95
2023-04-13T05:58:20.164Z,3.95
2023-04-13T06:03:27.610Z,0.70
2023-04-13T06:08:32.439Z,2.67
2023-04-13T06:13:34.025Z,0.77
2023-04-13T06:18:36.066Z,1.85
2023-04-13T06:23:37.582Z,2.55
2023-04-13T06:28:46.995Z,1.98
2023-04-13T06:33:51.688Z,6.55
2023-04-13T06:38:58.170Z,5.90
2023-04-13T06:43:59.379Z,1.55
2023-04-13T06:49:07.465Z,4.72
2023-04-13T06:54:09.116Z,1.20
2023-04-13T06:59:14.614Z,4.68
2023-04-13T07:04:16.672Z,1.45
2023-04-13T07:09:19.825Z,2.33
2023-04-13T07:14:20.721Z,1.35
2023-04-13T07:19:23.766Z,3.78
2023-04-13T07:24:25.112Z,3.88
2023-04-13T07:29:25.985Z,3.15
2023-04-13T07:34:32.926Z,2.38
2023-04-13T07:39:34.352Z,7.05
2023-04-13T07:44:36.021Z,1.25
2023-04-13T07:49:38.733Z,7.07
2023-04-13T07:54:43.701Z,1.33
2023-04-13T07:59:45.965Z,5.22
2023-04-13T08:04:49.675Z,5.30
2023-04-13T08:09:56.107Z,15.32
2023-04-13T08:14:57.126Z,2.00
2023-04-13T08:19:59.286Z,1.45
2023-04-13T08:24:59.943Z,3.67
2023-04-13T08:30:03.329Z,7.55
2023-04-13T08:35:15.979Z,2.05
2023-04-13T08:40:20.027Z,4.97
2023-04-13T08:45:21.668Z,4.22
2023-04-13T08:50:26.927Z,3.95
2023-04-13T08:55:29.411Z,2.05
2023-04-13T09:00:31.296Z,2.53
2023-04-13T09:05:37.826Z,1.83
2023-04-13T09:10:40.595Z,3.67
2023-04-13T09:15:49.130Z,4.60
2023-04-13T09:21:00.794Z,2.67
2023-04-13T09:26:06.013Z,2.63
2023-04-13T09:31:06.960Z,4.95
2023-04-13T09:36:13.266Z,3.65
2023-04-13T09:41:13.986Z,3.67
2023-04-13T09:46:15.346Z,1.48
2023-04-13T09:51:17.950Z,2.72
2023-04-13T09:56:20.769Z,2.20
2023-04-13T10:01:21.876Z,4.22
2023-04-13T10:06:24.364Z,2.65
2023-04-13T10:11:26.341Z,2.20
2023-04-13T10:16:58.788Z,2.80
2023-04-13T10:22:01.278Z,2.15
2023-04-13T10:27:12.335Z,3.42
2023-04-13T10:32:23.042Z,3.15
2023-04-13T10:37:28.634Z,6.05
2023-04-13T10:47:47.225Z,1.85
2023-04-13T10:53:00.808Z,4.25
2023-04-13T10:58:04.357Z,2.30
2023-04-13T11:03:06.625Z,5.95
2023-04-13T11:08:08.934Z,2.47
2023-04-13T11:13:09.532Z,1.70
2023-04-13T11:18:10.863Z,2.55
2023-04-13T11:23:18.182Z,5.70
2023-04-13T11:28:18.914Z,3.00
2023-04-13T11:33:25.581Z,3.20
2023-04-13T11:38:28.048Z,2.47
2023-04-13T11:43:28.859Z,4.07
2023-04-13T11:48:29.627Z,4.93
2023-04-13T11:53:33.652Z,3.03
2023-04-13T11:58:34.567Z,4.65
2023-04-13T12:03:47.685Z,3.40
2023-04-13T12:09:09.067Z,3.88
2023-04-13T12:14:46.000Z,4.47
2023-04-13T12:19:43.365Z,3.33
2023-04-13T12:24:45.997Z,4.85
2023-04-13T12:29:46.848Z,2.65
2023-04-13T12:34:48.832Z,3.50
2023-04-13T12:39:51.906Z,2.88
2023-04-13T12:44:52.484Z,2.50
2023-04-13T12:49:53.058Z,2.90
2023-04-13T12:54:55.122Z,5.40
2023-04-13T12:59:56.153Z,4.95
2023-04-13T13:04:57.131Z,5.63
2023-04-13T13:10:01.074Z,3.45
2023-04-13T13:15:03.093Z,5.10
2023-04-13T13:20:03.853Z,4.65
2023-04-13T13:25:08.428Z,5.80
2023-04-13T13:30:10.099Z,4.28
2023-04-13T13:35:11.140Z,2.55
2023-04-13T13:40:13.837Z,4.50
2023-04-13T13:45:14.431Z,2.17
2023-04-13T13:50:15.044Z,1.55
2023-04-13T13:55:22.908Z,3.13
2023-04-13T14:00:23.873Z,3.42
2023-04-13T14:05:24.760Z,5.68
2023-04-13T14:10:26.750Z,4.75
2023-04-13T14:15:27.472Z,7.47
2023-04-13T14:20:28.121Z,3.70
2023-04-13T14:25:30.084Z,5.78
2023-04-13T14:30:30.870Z,3.13
2023-04-13T14:35:31.499Z,2.85
2023-04-13T14:40:33.484Z,4.72
2023-04-13T14:45:34.342Z,6.65
2023-04-13T14:50:34.986Z,2.40
2023-04-13T14:55:37.038Z,3.90
2023-04-13T15:00:41.029Z,5.38
2023-04-13T15:05:42.314Z,4.95
2023-04-13T15:10:44.515Z,3.40
2023-04-13T15:15:46.407Z,5.55
2023-04-13T15:20:47.178Z,5.20
2023-04-13T15:25:49.082Z,5.93
2023-04-13T15:30:51.785Z,2.63
2023-04-13T15:35:53.545Z,2.40
2023-04-13T15:40:55.640Z,6.28
2023-04-13T15:45:56.509Z,3.17
2023-04-13T15:51:00.817Z,1.83
2023-04-13T15:56:02.758Z,6.20
2023-04-13T16:01:05.086Z,2.80
2023-04-13T16:06:05.863Z,2.00
2023-04-13T16:11:07.834Z,3.85
2023-04-13T16:16:08.975Z,2.78
2023-04-13T16:21:10.881Z,3.63
2023-04-13T16:26:13.129Z,2.47
2023-04-13T16:31:13.778Z,5.90
2023-04-13T16:36:14.346Z,3.28
2023-04-13T16:41:16.827Z,4.20
2023-04-13T16:46:17.566Z,4.10
2023-04-13T16:51:18.168Z,1.73
2023-04-13T16:56:21.905Z,2.80
2023-04-13T17:01:22.588Z,2.78
2023-04-13T17:06:23.182Z,5.22
2023-04-13T17:11:25.274Z,3.65
2023-04-13T17:16:29.164Z,3.85
2023-04-13T17:21:29.805Z,1.50
2023-04-13T17:26:32.354Z,3.13
2023-04-13T17:31:32.985Z,4.65
2023-04-13T17:36:33.712Z,6.13
2023-04-13T17:41:36.049Z,5.32
2023-04-13T17:46:36.784Z,4.13
2023-04-13T17:51:37.412Z,4.72
2023-04-13T17:56:41.881Z,4.20
2023-04-13T18:01:44.011Z,3.72
2023-04-13T18:06:45.152Z,5.18
2023-04-13T18:11:47.496Z,7.05
2023-04-13T18:16:48.194Z,6.60
2023-04-13T18:21:48.906Z,3.65
2023-04-13T18:26:51.806Z,3.78
2023-04-13T18:31:52.540Z,2.45
2023-04-13T18:36:53.236Z,1.95
2023-04-13T18:41:55.251Z,4.05
2023-04-13T18:46:56.060Z,3.15
2023-04-13T18:51:56.821Z,2.83
2023-04-13T18:56:58.895Z,3.22
2023-04-13T19:01:59.723Z,7.55
2023-04-13T19:07:00.433Z,9.73
2023-04-13T19:12:03.607Z,7.00
2023-04-13T19:17:05.768Z,9.45
2023-04-13T19:22:06.468Z,6.40
2023-04-13T19:27:08.418Z,4.80
2023-04-13T19:32:12.724Z,5.00
2023-04-13T19:37:13.321Z,6.72
2023-04-13T19:42:15.460Z,3.28
2023-04-13T19:47:16.053Z,6.22
2023-04-13T19:52:17.028Z,3.28
2023-04-13T19:57:19.271Z,9.18
2023-04-13T20:02:20.114Z,4.88
2023-04-13T20:07:20.875Z,5.10
2023-04-13T20:12:22.791Z,2.13
2023-04-13T20:17:23.454Z,5.85
2023-04-13T20:22:26.254Z,7.10
2023-04-13T20:27:29.697Z,5.45
2023-04-13T20:32:30.580Z,4.28
2023-04-13T20:37:31.292Z,4.07
2023-04-13T20:42:33.542Z,4.07
2023-04-13T20:47:35.603Z,9.13
2023-04-13T20:52:36.744Z,4.05
2023-04-13T20:57:41.750Z,5.28
2023-04-13T21:02:43.375Z,4.18
2023-04-13T21:07:45.324Z,3.85
2023-04-13T21:12:47.284Z,4.95
2023-04-13T21:17:48.871Z,3.63
2023-04-13T21:22:49.489Z,4.05
2023-04-13T21:27:51.473Z,9.95
2023-04-13T21:32:52.172Z,6.90
2023-04-13T21:37:52.858Z,9.82
2023-04-13T21:42:55.040Z,10.20
2023-04-13T21:47:55.696Z,10.45
2023-04-13T21:52:56.536Z,12.68
2023-04-13T21:57:58.562Z,11.80
2023-04-13T22:02:59.350Z,8.63
2023-04-13T22:08:00.219Z,11.02
2023-04-13T22:13:02.216Z,10.43
2023-04-13T22:18:02.862Z,9.95
2023-04-13T22:23:03.448Z,9.75
2023-04-13T22:28:05.943Z,23.25
2023-04-13T22:33:06.934Z,8.75
2023-04-13T22:38:07.529Z,10.15
2023-04-13T22:43:09.483Z,10.10
2023-04-13T22:48:10.077Z,12.00
2023-04-13T22:53:10.766Z,8.73
2023-04-13T22:58:12.730Z,11.35
2023-04-13T23:03:13.524Z,9.00
2023-04-13T23:08:14.339Z,9.10
2023-04-13T23:13:16.316Z,14.35
2023-04-13T23:18:16.919Z,15.68
2023-04-13T23:23:17.531Z,15.57
2023-04-13T23:28:19.470Z,14.35
2023-04-13T23:33:21.222Z,9.95
2023-04-13T23:38:21.830Z,10.27
2023-04-13T23:43:24.038Z,8.63
2023-04-13T23:48:26.168Z,9.02
2023-04-13T23:53:26.763Z,6.93
2023-04-13T23:58:28.722Z,12.90
